Time;durP1;ratioP1;P1;durP2;ratioP2;P2;SDS_P1;SDS_P2;PMS_P1;PMS_P2;Temp;Humidity;BMP_temperature;BMP_pressure;BME280_temperature;BME280_humidity;BME280_pressure;Samples;Min_cycle;Max_cycle;Signal;HPM_P1;HPM_P2
2021/10/13 00:02:19;;;;;;;13.50;12.20;;;8.80;79.50;;;;;;5032231;28;20254;-86
2021/10/13 00:04:44;;;;;;;12.53;11.43;;;8.80;78.20;;;;;;5032296;28;20172;-86
2021/10/13 00:07:10;;;;;;;12.33;11.23;;;8.70;78.70;;;;;;5031863;28;20259;-86
2021/10/13 00:09:35;;;;;;;12.90;11.60;;;8.70;79.50;;;;;;5032181;28;20633;-86
2021/10/13 00:12:01;;;;;;;12.60;11.43;;;8.70;79.30;;;;;;5031660;28;20176;-86
2021/10/13 00:14:27;;;;;;;11.67;10.57;;;8.70;78.60;;;;;;5031950;28;20180;-86
2021/10/13 00:16:55;;;;;;;12.30;11.10;;;8.60;78.10;;;;;;5031986;28;20262;-86
2021/10/13 00:19:21;;;;;;;11.33;10.33;;;8.60;78.20;;;;;;5031613;28;20208;-86
2021/10/13 00:21:47;;;;;;;14.37;11.90;;;8.60;77.40;;;;;;5031744;28;20418;-85
2021/10/13 00:24:12;;;;;;;12.57;11.37;;;8.60;79.40;;;;;;5031389;28;20506;-85
2021/10/13 00:26:38;;;;;;;13.33;11.87;;;8.50;79.10;;;;;;5031129;28;20235;-85
2021/10/13 00:29:04;;;;;;;13.70;12.40;;;8.50;79.90;;;;;;5031613;28;20267;-86
2021/10/13 00:31:29;;;;;;;13.50;12.27;;;8.50;79.80;;;;;;5031396;28;20310;-87
2021/10/13 00:33:56;;;;;;;12.90;11.63;;;8.40;80.30;;;;;;5031294;28;20187;-85
2021/10/13 00:36:21;;;;;;;12.27;11.17;;;8.40;80.60;;;;;;5031419;28;20585;-85
2021/10/13 00:38:47;;;;;;;12.27;11.27;;;8.50;79.10;;;;;;5031417;28;20544;-85
2021/10/13 00:41:16;;;;;;;11.50;10.50;;;8.50;79.10;;;;;;5031429;28;20196;-85
2021/10/13 00:43:43;;;;;;;12.30;11.20;;;8.40;79.20;;;;;;5035253;28;20169;-85
2021/10/13 00:46:09;;;;;;;12.40;11.20;;;8.40;79.30;;;;;;5035676;28;20512;-84
2021/10/13 00:48:34;;;;;;;12.37;11.27;;;8.30;79.30;;;;;;5035067;28;20447;-85
2021/10/13 00:51:00;;;;;;;13.37;12.07;;;8.30;78.60;;;;;;5035200;28;20915;-85
2021/10/13 00:53:26;;;;;;;12.10;10.90;;;8.30;79.20;;;;;;5035501;28;20180;-86
2021/10/13 00:55:52;;;;;;;13.53;11.27;;;8.30;79.40;;;;;;5035418;28;20194;-86
2021/10/13 00:58:19;;;;;;;11.60;10.53;;;8.30;78.20;;;;;;5035084;28;20462;-86
2021/10/13 01:00:49;;;;;;;11.50;10.50;;;8.30;78.70;;;;;;5035277;28;20418;-84
2021/10/13 01:03:42;;;;;;;13.43;12.17;;;8.30;78.20;;;;;;5035429;28;20418;-87
2021/10/13 01:06:19;;;;;;;11.67;10.67;;;8.20;79.00;;;;;;5035050;28;20465;-81
2021/10/13 01:08:57;;;;;;;11.80;10.60;;;8.20;79.50;;;;;;5034844;28;20419;-81
2021/10/13 01:11:49;;;;;;;12.10;11.10;;;8.20;79.10;;;;;;5051361;28;20419;-85
2021/10/13 01:14:41;;;;;;;12.50;11.23;;;8.20;79.20;;;;;;5051794;28;20935;-85
2021/10/13 01:17:45;;;;;;;12.47;11.27;;;8.20;78.70;;;;;;5034930;28;20407;-86
2021/10/13 01:20:34;;;;;;;13.00;11.80;;;8.10;79.50;;;;;;4991510;28;20962;-85
2021/10/13 01:23:19;;;;;;;11.60;10.50;;;8.20;78.60;;;;;;4997903;28;20408;-87
2021/10/13 01:26:06;;;;;;;12.83;11.63;;;8.20;78.50;;;;;;5051531;28;20969;-85
2021/10/13 01:28:38;;;;;;;14.13;12.57;;;8.20;78.30;;;;;;5050990;28;20502;-85
2021/10/13 01:31:14;;;;;;;12.87;11.57;;;8.20;77.70;;;;;;5034532;28;20529;-84
2021/10/13 01:33:52;;;;;;;11.07;9.97;;;8.20;77.30;;;;;;5034614;28;20475;-85
2021/10/13 01:36:23;;;;;;;11.37;10.37;;;8.20;76.90;;;;;;5034462;28;20414;-86
2021/10/13 01:38:51;;;;;;;10.90;9.90;;;8.20;75.90;;;;;;5034405;28;20466;-85
2021/10/13 01:41:20;;;;;;;11.53;10.27;;;8.20;77.00;;;;;;5034505;28;20427;-85
2021/10/13 01:43:50;;;;;;;10.60;9.60;;;8.30;76.40;;;;;;5034315;28;20415;-86
2021/10/13 01:46:20;;;;;;;11.03;10.03;;;8.20;76.90;;;;;;5034400;28;20956;-85
2021/10/13 01:48:46;;;;;;;9.83;8.87;;;8.30;75.60;;;;;;5034040;28;20832;-85
2021/10/13 01:51:14;;;;;;;10.33;9.43;;;8.30;75.00;;;;;;5034297;28;20454;-86
2021/10/13 01:53:41;;;;;;;9.73;8.93;;;8.20;75.10;;;;;;5033554;28;20430;-86
2021/10/13 01:56:08;;;;;;;10.33;9.40;;;8.20;76.40;;;;;;5034177;28;20498;-85
2021/10/13 01:58:36;;;;;;;10.37;9.37;;;8.20;77.60;;;;;;5033609;28;20501;-85
2021/10/13 02:01:03;;;;;;;11.40;10.40;;;8.30;76.40;;;;;;5034032;28;20421;-85
2021/10/13 02:03:31;;;;;;;12.63;10.87;;;8.20;75.10;;;;;;5034680;28;20938;-85
2021/10/13 02:06:02;;;;;;;11.00;9.90;;;8.20;76.50;;;;;;5033754;28;20412;-85
2021/10/13 02:08:29;;;;;;;12.60;11.40;;;8.30;77.50;;;;;;5033475;28;20919;-84
2021/10/13 02:10:58;;;;;;;11.00;9.90;;;8.20;77.60;;;;;;5033944;28;20451;-85
2021/10/13 02:13:25;;;;;;;10.93;10.00;;;8.20;76.80;;;;;;5035004;28;20915;-85
2021/10/13 02:15:53;;;;;;;11.03;9.93;;;8.20;76.80;;;;;;5033947;28;20411;-86
2021/10/13 02:18:28;;;;;;;10.73;9.83;;;8.20;77.00;;;;;;5033780;28;20501;-85
2021/10/13 02:20:56;;;;;;;10.77;9.83;;;8.20;76.00;;;;;;5033979;28;20417;-86
2021/10/13 02:23:24;;;;;;;12.30;11.20;;;8.20;75.50;;;;;;5033794;28;20489;-85
2021/10/13 02:25:52;;;;;;;11.40;10.40;;;8.20;75.50;;;;;;5033578;28;20946;-85
2021/10/13 02:28:42;;;;;;;12.07;10.80;;;8.10;75.70;;;;;;5033409;28;20446;-81
2021/10/13 02:31:08;;;;;;;10.30;9.40;;;8.10;74.80;;;;;;5033256;28;20439;-81
2021/10/13 02:33:36;;;;;;;12.40;11.30;;;8.10;75.40;;;;;;5017765;28;20470;-85
2021/10/13 02:36:03;;;;;;;11.80;10.80;;;8.20;75.10;;;;;;5034182;28;20438;-86
2021/10/13 02:38:30;;;;;;;11.87;10.60;;;8.10;75.50;;;;;;5033311;28;20528;-85
2021/10/13 02:40:56;;;;;;;12.03;10.90;;;8.00;75.40;;;;;;5050315;28;20426;-85
2021/10/13 02:43:22;;;;;;;11.83;10.63;;;8.00;75.30;;;;;;5050515;28;20427;-86
2021/10/13 02:46:05;;;;;;;11.80;10.80;;;8.10;74.40;;;;;;5033966;28;20412;-85
2021/10/13 02:48:33;;;;;;;11.60;10.70;;;8.00;75.00;;;;;;5034129;28;20260;-86
2021/10/13 02:51:11;;;;;;;12.77;10.90;;;8.00;75.10;;;;;;5034181;28;20419;-86
2021/10/13 02:53:46;;;;;;;15.37;11.57;;;8.10;75.30;;;;;;5034391;28;20415;-85
2021/10/13 02:56:14;;;;;;;11.50;9.83;;;8.10;75.10;;;;;;5033604;28;20418;-85
2021/10/13 02:58:44;;;;;;;12.10;11.00;;;8.10;76.60;;;;;;5050041;28;20467;-85
2021/10/13 03:01:14;;;;;;;11.73;10.27;;;8.10;75.00;;;;;;5033090;28;20973;-85
2021/10/13 03:03:47;;;;;;;12.67;10.90;;;8.10;74.40;;;;;;5033467;28;20474;-86
2021/10/13 03:06:14;;;;;;;11.90;10.90;;;8.10;76.10;;;;;;5032627;28;20915;-84
2021/10/13 03:08:44;;;;;;;10.90;9.90;;;8.10;75.40;;;;;;5032857;28;20933;-85
2021/10/13 03:11:12;;;;;;;13.00;11.50;;;8.10;75.40;;;;;;5033080;28;20427;-85
2021/10/13 03:13:39;;;;;;;12.23;11.03;;;8.10;75.90;;;;;;5033103;28;20807;-86
2021/10/13 03:16:08;;;;;;;11.43;10.43;;;8.00;74.70;;;;;;5033322;28;20464;-86
2021/10/13 03:18:38;;;;;;;11.80;10.80;;;8.00;75.30;;;;;;5032289;28;20474;-86
2021/10/13 03:21:04;;;;;;;15.40;10.83;;;8.00;75.10;;;;;;5032518;28;20420;-85
2021/10/13 03:23:30;;;;;;;13.70;12.30;;;8.10;75.50;;;;;;5032620;28;20419;-85
2021/10/13 03:26:10;;;;;;;13.70;12.40;;;8.00;74.70;;;;;;5032443;28;20962;-85
2021/10/13 03:28:38;;;;;;;14.43;12.93;;;8.00;75.60;;;;;;5031890;28;20188;-85
2021/10/13 03:31:04;;;;;;;13.00;11.80;;;8.00;75.30;;;;;;5032661;28;20931;-86
2021/10/13 03:33:30;;;;;;;13.17;11.97;;;8.00;75.90;;;;;;5032057;28;20502;-85
2021/10/13 03:35:56;;;;;;;15.20;13.43;;;8.00;75.40;;;;;;5032222;28;20454;-86
2021/10/13 03:38:22;;;;;;;13.80;12.50;;;8.00;75.60;;;;;;5033223;28;20200;-85
2021/10/13 03:40:48;;;;;;;12.53;11.40;;;8.00;75.20;;;;;;5033755;28;20779;-86
2021/10/13 03:43:13;;;;;;;13.83;12.43;;;8.00;74.70;;;;;;5033219;28;20415;-86
2021/10/13 03:45:39;;;;;;;13.13;11.77;;;8.00;75.30;;;;;;5032687;28;20224;-85
2021/10/13 03:48:05;;;;;;;13.00;11.63;;;8.00;75.60;;;;;;5032078;28;20211;-86
2021/10/13 03:50:31;;;;;;;12.10;11.00;;;8.00;75.30;;;;;;5032320;28;20203;-85
2021/10/13 03:52:57;;;;;;;13.30;12.10;;;8.00;75.00;;;;;;5031951;28;20187;-84
2021/10/13 03:55:23;;;;;;;11.37;10.27;;;8.00;75.30;;;;;;5031872;28;20187;-86
2021/10/13 03:57:49;;;;;;;13.40;12.00;;;7.90;74.10;;;;;;5031361;28;20989;-86
2021/10/13 04:00:17;;;;;;;14.30;13.00;;;7.90;75.30;;;;;;5031958;28;20191;-85
2021/10/13 04:02:44;;;;;;;14.80;13.40;;;8.00;75.80;;;;;;5032176;28;20291;-85
2021/10/13 04:05:11;;;;;;;12.00;10.80;;;8.00;74.60;;;;;;5031794;28;20469;-85
2021/10/13 04:07:37;;;;;;;13.90;12.53;;;7.90;75.30;;;;;;5032877;28;20806;-85
2021/10/13 04:10:05;;;;;;;13.60;11.97;;;7.90;75.30;;;;;;5031893;28;20986;-85
2021/10/13 04:12:31;;;;;;;13.73;11.97;;;7.90;76.00;;;;;;5031613;28;20461;-86
2021/10/13 04:14:56;;;;;;;14.53;13.03;;;7.90;76.00;;;;;;5031303;28;20445;-85
2021/10/13 04:17:22;;;;;;;14.93;13.57;;;7.90;75.30;;;;;;5030921;28;20176;-86
2021/10/13 04:19:48;;;;;;;13.40;11.60;;;7.90;75.20;;;;;;5031124;28;20246;-85
2021/10/13 04:22:13;;;;;;;14.50;13.20;;;7.90;74.80;;;;;;5031122;28;20184;-85
2021/10/13 04:24:39;;;;;;;13.87;12.43;;;7.90;75.00;;;;;;5031080;28;20234;-86
2021/10/13 04:27:05;;;;;;;13.43;12.10;;;7.90;75.10;;;;;;5031169;28;20180;-86
2021/10/13 04:29:30;;;;;;;13.27;11.17;;;7.90;75.20;;;;;;5031085;28;20219;-86
2021/10/13 04:31:56;;;;;;;13.53;12.23;;;7.90;75.20;;;;;;5031135;28;20234;-85
2021/10/13 04:34:22;;;;;;;13.50;12.20;;;7.90;75.10;;;;;;5031075;28;20181;-86
2021/10/13 04:36:47;;;;;;;14.17;12.73;;;7.80;76.00;;;;;;5030749;28;20270;-85
2021/10/13 04:39:13;;;;;;;14.00;12.50;;;7.80;76.00;;;;;;5031049;28;20215;-86
2021/10/13 04:41:39;;;;;;;16.03;12.27;;;7.90;75.40;;;;;;5031079;28;20186;-86
2021/10/13 04:44:05;;;;;;;15.30;13.80;;;7.90;75.60;;;;;;5030935;28;20188;-84
2021/10/13 04:46:30;;;;;;;14.00;12.57;;;7.90;75.80;;;;;;5031233;28;20585;-85
2021/10/13 04:48:56;;;;;;;15.60;14.00;;;7.90;74.90;;;;;;5030962;28;20430;-85
2021/10/13 04:51:22;;;;;;;14.27;12.83;;;7.90;75.40;;;;;;5031280;28;20701;-85
2021/10/13 04:53:47;;;;;;;13.17;12.00;;;7.90;75.30;;;;;;5031068;28;20181;-85
2021/10/13 04:56:13;;;;;;;13.73;12.43;;;7.80;76.40;;;;;;5031107;28;20267;-85
2021/10/13 04:58:38;;;;;;;14.33;12.93;;;7.80;74.80;;;;;;5030879;28;20576;-86
2021/10/13 05:01:04;;;;;;;14.90;13.43;;;7.80;75.20;;;;;;5031270;28;20720;-86
2021/10/13 05:03:30;;;;;;;13.53;12.23;;;7.80;74.70;;;;;;5030928;28;20249;-85
2021/10/13 05:05:55;;;;;;;16.73;13.10;;;7.70;75.10;;;;;;5032151;28;20200;-85
2021/10/13 05:08:21;;;;;;;14.50;13.00;;;7.70;75.80;;;;;;5030402;28;20283;-86
2021/10/13 05:10:47;;;;;;;14.30;13.00;;;7.70;75.70;;;;;;5030997;28;20590;-85
2021/10/13 05:13:12;;;;;;;13.97;12.57;;;7.70;75.60;;;;;;5031158;28;20187;-87
2021/10/13 05:15:38;;;;;;;13.60;12.20;;;7.70;75.90;;;;;;5030815;28;20185;-82
2021/10/13 05:18:04;;;;;;;14.70;11.57;;;7.70;75.40;;;;;;5030413;28;20212;-80
2021/10/13 05:20:29;;;;;;;13.47;11.83;;;7.70;74.90;;;;;;5032232;28;20187;-81
2021/10/13 05:22:55;;;;;;;13.30;12.10;;;7.70;75.20;;;;;;5047244;28;20276;-81
2021/10/13 05:25:21;;;;;;;12.80;11.50;;;7.70;75.70;;;;;;5030962;28;20222;-80
2021/10/13 05:27:47;;;;;;;11.93;10.63;;;7.80;74.50;;;;;;5030805;28;20233;-80
2021/10/13 05:30:12;;;;;;;13.40;12.00;;;7.70;74.50;;;;;;5033874;28;20980;-82
2021/10/13 05:32:38;;;;;;;15.00;12.00;;;7.70;74.70;;;;;;5034444;28;20180;-80
2021/10/13 05:35:04;;;;;;;12.00;10.90;;;7.60;74.90;;;;;;5035396;28;20659;-81
2021/10/13 05:37:29;;;;;;;14.17;12.80;;;7.70;75.10;;;;;;5034109;28;20238;-81
2021/10/13 05:39:55;;;;;;;13.43;12.00;;;7.70;75.10;;;;;;5035517;28;20457;-82
2021/10/13 05:42:21;;;;;;;12.10;11.00;;;7.80;75.20;;;;;;5033773;28;20181;-81
2021/10/13 05:44:46;;;;;;;11.90;10.80;;;7.80;74.60;;;;;;5033913;28;20294;-81
2021/10/13 05:47:12;;;;;;;11.63;10.43;;;7.80;74.50;;;;;;5033712;28;20226;-81
2021/10/13 05:49:38;;;;;;;12.37;11.17;;;7.80;74.10;;;;;;5033898;28;20179;-81
2021/10/13 05:52:05;;;;;;;13.60;11.17;;;7.90;75.50;;;;;;5033914;28;20184;-81
2021/10/13 05:54:31;;;;;;;14.90;11.50;;;7.90;75.10;;;;;;5034108;28;20180;-80
2021/10/13 05:56:57;;;;;;;12.03;10.93;;;7.90;74.50;;;;;;5033397;28;20419;-80
2021/10/13 05:59:22;;;;;;;13.50;10.50;;;7.90;74.70;;;;;;5033746;28;20570;-80
2021/10/13 06:01:48;;;;;;;13.93;12.43;;;7.90;74.20;;;;;;5033873;28;20235;-80
2021/10/13 06:04:14;;;;;;;13.37;12.13;;;8.00;73.90;;;;;;5033567;28;20183;-80
2021/10/13 06:06:39;;;;;;;10.70;9.70;;;8.00;73.90;;;;;;5033304;28;20542;-81
2021/10/13 06:09:05;;;;;;;12.03;9.97;;;8.00;73.80;;;;;;5035007;28;20176;-81
2021/10/13 06:11:31;;;;;;;10.03;9.13;;;8.10;73.30;;;;;;5033522;28;20676;-81
2021/10/13 06:13:56;;;;;;;11.30;10.10;;;8.00;71.60;;;;;;5033196;28;20235;-81
2021/10/13 06:16:23;;;;;;;11.30;10.10;;;8.00;73.00;;;;;;5033312;28;20219;-81
2021/10/13 06:18:50;;;;;;;11.33;9.63;;;8.10;72.90;;;;;;5032969;28;20204;-81
2021/10/13 06:21:20;;;;;;;11.60;10.50;;;8.00;72.10;;;;;;5033151;28;20520;-81
2021/10/13 06:23:46;;;;;;;12.33;11.30;;;8.10;70.40;;;;;;5033031;28;20424;-80
2021/10/13 06:26:12;;;;;;;12.97;11.47;;;7.90;71.80;;;;;;5033056;28;20417;-81
2021/10/13 06:28:38;;;;;;;12.10;10.63;;;7.90;72.20;;;;;;5034943;28;20477;-82
2021/10/13 06:31:04;;;;;;;11.20;10.10;;;8.00;72.50;;;;;;5032969;28;20439;-81
2021/10/13 06:33:32;;;;;;;11.20;10.20;;;8.10;73.00;;;;;;5032920;28;20191;-81
2021/10/13 06:35:58;;;;;;;10.93;9.83;;;8.00;73.00;;;;;;5033012;28;20423;-82
2021/10/13 06:38:24;;;;;;;11.23;9.63;;;8.10;72.40;;;;;;5032932;28;20887;-81
2021/10/13 06:40:53;;;;;;;10.90;9.90;;;8.10;71.60;;;;;;5032955;28;20423;-82
2021/10/13 06:43:21;;;;;;;10.73;9.33;;;8.10;71.70;;;;;;5033221;28;20177;-81
2021/10/13 06:45:47;;;;;;;11.27;10.23;;;8.10;71.80;;;;;;5033305;28;20419;-81
2021/10/13 06:48:13;;;;;;;11.10;10.00;;;8.10;70.90;;;;;;5032853;28;20431;-81
2021/10/13 06:50:39;;;;;;;9.90;9.00;;;8.10;72.20;;;;;;5033230;28;20214;-81
2021/10/13 06:53:04;;;;;;;11.60;9.60;;;8.10;72.30;;;;;;5032886;28;20664;-81
2021/10/13 06:55:30;;;;;;;11.03;9.40;;;8.10;73.70;;;;;;5033166;28;20481;-81
2021/10/13 06:57:56;;;;;;;16.23;12.23;;;8.10;73.70;;;;;;5032249;28;20216;-80
2021/10/13 07:00:22;;;;;;;11.97;10.77;;;8.10;73.90;;;;;;5033163;28;20425;-81
2021/10/13 07:02:48;;;;;;;10.73;9.60;;;8.10;73.90;;;;;;5032325;28;20430;-81
2021/10/13 07:05:13;;;;;;;11.70;10.17;;;8.10;75.40;;;;;;5032723;28;20180;-81
2021/10/13 07:07:47;;;;;;;10.30;9.17;;;8.10;75.00;;;;;;5032307;28;20630;-81
2021/10/13 07:10:13;;;;;;;11.20;10.20;;;8.20;74.30;;;;;;5032618;28;20315;-82
2021/10/13 07:12:39;;;;;;;10.83;9.83;;;8.10;73.10;;;;;;5032770;28;20469;-81
2021/10/13 07:15:06;;;;;;;10.57;8.67;;;8.10;70.80;;;;;;5033911;28;20414;-81
2021/10/13 07:17:33;;;;;;;10.50;9.50;;;8.00;72.30;;;;;;5032182;28;20442;-81
2021/10/13 07:20:02;;;;;;;10.43;9.43;;;8.10;72.70;;;;;;5032199;28;20463;-81
2021/10/13 07:22:28;;;;;;;9.70;8.80;;;8.10;74.20;;;;;;5031679;28;20927;-81
2021/10/13 07:24:55;;;;;;;10.80;9.70;;;8.10;73.50;;;;;;5031720;28;20908;-81
2021/10/13 07:27:22;;;;;;;11.50;8.50;;;8.10;73.00;;;;;;5031465;28;20934;-81
2021/10/13 07:29:55;;;;;;;12.40;11.20;;;8.10;73.50;;;;;;5031770;28;20476;-81
2021/10/13 07:32:21;;;;;;;10.27;8.90;;;8.20;73.00;;;;;;5031621;28;20423;-81
2021/10/13 07:34:47;;;;;;;15.60;9.93;;;8.10;72.50;;;;;;5032055;28;20982;-81
2021/10/13 07:37:12;;;;;;;12.30;11.03;;;8.10;73.10;;;;;;5031416;28;20185;-80
2021/10/13 07:39:39;;;;;;;11.77;9.80;;;8.10;72.80;;;;;;5031466;28;20470;-81
2021/10/13 07:42:05;;;;;;;14.50;8.83;;;8.10;72.70;;;;;;5031313;28;20177;-81
2021/10/13 07:44:30;;;;;;;13.93;10.17;;;8.00;73.20;;;;;;5031382;28;20904;-81
2021/10/13 07:46:56;;;;;;;12.30;10.33;;;8.10;74.10;;;;;;5031081;28;20190;-82
2021/10/13 07:49:22;;;;;;;10.10;8.80;;;8.10;74.80;;;;;;5031680;28;20463;-81
2021/10/13 07:51:48;;;;;;;10.87;8.77;;;8.20;74.90;;;;;;5031267;28;20184;-81
2021/10/13 07:54:13;;;;;;;11.40;10.40;;;8.30;73.70;;;;;;5031634;28;20262;-81
2021/10/13 07:56:39;;;;;;;10.40;9.47;;;8.40;72.80;;;;;;5031217;28;20426;-80
2021/10/13 07:59:05;;;;;;;13.63;9.53;;;8.50;73.50;;;;;;5031281;28;20235;-81
2021/10/13 08:01:30;;;;;;;11.53;9.50;;;8.50;71.70;;;;;;5031675;28;20183;-81
2021/10/13 08:03:56;;;;;;;12.90;10.80;;;8.60;72.70;;;;;;5031533;28;20639;-80
2021/10/13 08:06:22;;;;;;;12.33;11.10;;;8.60;70.90;;;;;;5033166;28;20173;-80
2021/10/13 08:08:49;;;;;;;19.87;12.43;;;8.70;71.10;;;;;;5031514;28;20192;-80
2021/10/13 08:11:15;;;;;;;13.23;11.80;;;8.80;70.60;;;;;;5031769;28;20416;-80
2021/10/13 08:13:40;;;;;;;11.17;10.17;;;8.80;70.10;;;;;;5031739;28;20503;-80
2021/10/13 08:16:06;;;;;;;17.33;11.40;;;8.80;68.40;;;;;;5031613;28;20235;-80
2021/10/13 08:18:32;;;;;;;12.23;11.03;;;8.90;69.50;;;;;;5031047;28;20540;-79
2021/10/13 08:20:58;;;;;;;11.43;10.43;;;9.00;68.30;;;;;;5031280;28;20177;-81
2021/10/13 08:23:24;;;;;;;12.67;11.37;;;8.90;69.00;;;;;;5032573;28;20403;-80
2021/10/13 08:25:54;;;;;;;13.53;12.13;;;9.00;68.80;;;;;;5033042;28;20908;-81
2021/10/13 08:28:20;;;;;;;16.67;11.60;;;9.00;68.70;;;;;;5048053;28;20211;-81
2021/10/13 08:30:46;;;;;;;13.73;12.30;;;9.10;68.90;;;;;;5032698;28;20474;-81
2021/10/13 08:33:11;;;;;;;12.57;11.37;;;9.10;68.80;;;;;;5031186;28;20416;-81
2021/10/13 08:35:37;;;;;;;12.47;11.17;;;9.20;67.50;;;;;;5030953;28;20267;-81
2021/10/13 08:38:03;;;;;;;13.73;12.30;;;9.20;67.00;;;;;;5030658;28;20685;-81
2021/10/13 08:40:29;;;;;;;12.73;11.10;;;9.30;66.80;;;;;;5031504;28;20258;-81
2021/10/13 08:42:57;;;;;;;12.87;11.57;;;9.30;64.90;;;;;;5031558;28;20181;-81
2021/10/13 08:45:24;;;;;;;15.60;13.33;;;9.30;65.80;;;;;;5031581;28;20506;-81
2021/10/13 08:47:51;;;;;;;16.10;12.20;;;9.40;66.10;;;;;;5031030;28;20886;-81
2021/10/13 08:50:16;;;;;;;16.83;12.60;;;9.30;66.10;;;;;;5031489;28;20424;-81
2021/10/13 08:52:42;;;;;;;14.87;13.30;;;9.30;65.90;;;;;;5031141;28;20931;-81
2021/10/13 08:55:08;;;;;;;17.30;14.40;;;9.40;67.00;;;;;;5030953;28;20419;-81
2021/10/13 08:57:34;;;;;;;17.53;13.50;;;9.40;65.20;;;;;;5030309;28;20656;-81
2021/10/13 09:00:00;;;;;;;15.97;14.37;;;9.40;64.70;;;;;;5030604;28;20462;-81
2021/10/13 09:02:45;;;;;;;15.50;12.27;;;9.40;65.30;;;;;;5030723;28;20416;-81
2021/10/13 09:05:10;;;;;;;17.73;13.60;;;9.40;64.10;;;;;;5034641;28;20585;-81
2021/10/13 09:07:37;;;;;;;15.00;12.77;;;9.40;63.90;;;;;;5050488;28;20422;-81
2021/10/13 09:10:04;;;;;;;16.40;11.70;;;9.50;64.20;;;;;;5034380;28;20235;-80
2021/10/13 09:12:35;;;;;;;12.97;11.60;;;9.60;64.60;;;;;;5036042;28;20403;-80
2021/10/13 09:15:25;;;;;;;13.17;10.03;;;9.60;61.70;;;;;;5034822;28;20763;-80
2021/10/13 09:18:01;;;;;;;10.40;9.30;;;9.50;61.50;;;;;;5033892;28;20475;-81
2021/10/13 09:20:29;;;;;;;15.27;10.47;;;9.60;62.20;;;;;;5034273;28;20441;-81
2021/10/13 09:23:30;;;;;;;20.80;10.53;;;9.60;62.20;;;;;;5033910;28;20839;-80
2021/10/13 09:26:10;;;;;;;10.93;7.10;;;9.60;63.60;;;;;;5030904;28;20513;-80
2021/10/13 09:28:37;;;;;;;10.80;7.23;;;9.50;63.80;;;;;;5033643;28;20414;-80
2021/10/13 09:31:14;;;;;;;7.30;6.60;;;9.40;64.20;;;;;;5034073;28;20439;-79
2021/10/13 09:33:56;;;;;;;7.57;5.90;;;9.40;65.40;;;;;;5034085;28;20427;-80
2021/10/13 09:36:31;;;;;;;5.27;4.80;;;9.40;66.60;;;;;;5034572;28;20415;-80
2021/10/13 09:39:02;;;;;;;7.53;5.60;;;9.40;62.30;;;;;;5034024;28;20469;-81
2021/10/13 09:41:28;;;;;;;7.57;6.03;;;9.40;64.10;;;;;;5034092;28;20469;-80
2021/10/13 09:43:53;;;;;;;11.77;7.07;;;9.50;64.90;;;;;;5033808;28;20423;-80
2021/10/13 09:46:20;;;;;;;7.13;6.43;;;9.50;64.60;;;;;;5033790;28;20603;-80
2021/10/13 09:48:59;;;;;;;7.90;7.10;;;9.60;65.60;;;;;;5034111;28;20203;-81
2021/10/13 09:51:25;;;;;;;9.83;8.33;;;9.50;65.20;;;;;;5033659;28;20950;-81
2021/10/13 09:53:52;;;;;;;13.03;9.07;;;9.60;66.50;;;;;;5033742;28;20912;-80
2021/10/13 09:56:32;;;;;;;12.47;10.37;;;9.60;68.00;;;;;;5033712;28;20415;-81
2021/10/13 09:59:07;;;;;;;14.47;10.80;;;9.70;65.90;;;;;;5033325;28;20847;-81
2021/10/13 10:01:33;;;;;;;10.33;9.20;;;9.70;65.70;;;;;;5050079;28;20954;-81
2021/10/13 10:04:00;;;;;;;11.90;8.90;;;9.80;65.60;;;;;;5033208;28;20411;-81
2021/10/13 10:06:27;;;;;;;13.40;8.70;;;10.00;65.20;;;;;;5033352;28;20441;-80
2021/10/13 10:08:56;;;;;;;12.93;7.70;;;10.20;64.10;;;;;;5033369;28;20919;-79
2021/10/13 10:11:42;;;;;;;11.00;8.53;;;10.20;58.10;;;;;;5050020;28;20412;-80
2021/10/13 10:14:37;;;;;;;10.53;9.43;;;10.30;56.40;;;;;;5048932;28;20412;-81
2021/10/13 10:17:07;;;;;;;9.00;8.10;;;10.40;59.20;;;;;;5033295;28;20841;-80
2021/10/13 10:19:44;;;;;;;10.03;8.63;;;10.40;56.30;;;;;;5033149;28;20462;-80
2021/10/13 10:22:21;;;;;;;10.23;8.03;;;10.30;56.50;;;;;;5033295;28;20422;-80
2021/10/13 10:24:46;;;;;;;9.33;8.10;;;10.30;55.10;;;;;;5033297;28;20429;-81
2021/10/13 10:27:24;;;;;;;7.87;7.13;;;10.10;53.60;;;;;;5049460;28;20506;-81
2021/10/13 10:29:59;;;;;;;9.30;8.37;;;10.00;54.70;;;;;;5049716;28;20215;-81
2021/10/13 10:32:25;;;;;;;10.67;9.43;;;10.00;56.50;;;;;;5049970;28;20480;-81
2021/10/13 10:35:05;;;;;;;9.73;8.87;;;10.00;57.30;;;;;;5033039;28;20415;-80
2021/10/13 10:37:45;;;;;;;14.53;9.27;;;10.10;55.50;;;;;;5049316;28;20202;-81
2021/10/13 10:40:19;;;;;;;10.80;7.23;;;10.10;57.60;;;;;;5033305;28;20434;-80
2021/10/13 10:42:53;;;;;;;7.80;6.00;;;10.30;53.10;;;;;;5049775;28;20415;-80
2021/10/13 10:45:22;;;;;;;6.07;5.50;;;10.30;53.10;;;;;;5033365;28;20495;-79
2021/10/13 10:47:50;;;;;;;7.77;5.43;;;10.30;52.70;;;;;;5033117;28;20813;-81
2021/10/13 10:50:30;;;;;;;10.17;9.23;;;10.30;53.70;;;;;;5033520;28;20849;-80
2021/10/13 10:53:33;;;;;;;12.57;11.37;;;10.20;55.30;;;;;;5033441;28;20415;-81
2021/10/13 10:56:25;;;;;;;12.10;10.90;;;10.00;57.40;;;;;;5032749;28;20427;-80
2021/10/13 10:58:57;;;;;;;12.30;10.97;;;10.10;57.30;;;;;;5032410;28;20898;-81
2021/10/13 11:01:23;;;;;;;11.50;10.40;;;10.00;57.80;;;;;;5049482;28;20461;-81
2021/10/13 11:03:49;;;;;;;12.30;11.20;;;10.00;58.40;;;;;;5032454;28;20412;-80
2021/10/13 11:06:23;;;;;;;11.17;10.07;;;10.10;58.90;;;;;;5032563;28;20431;-81
2021/10/13 11:08:55;;;;;;;10.63;9.20;;;10.00;57.70;;;;;;5032017;28;20464;-80
2021/10/13 11:11:22;;;;;;;9.03;8.13;;;10.10;57.70;;;;;;5048935;28;20415;-81
2021/10/13 11:13:58;;;;;;;8.57;7.23;;;10.20;57.00;;;;;;5032102;28;20498;-82
2021/10/13 11:16:23;;;;;;;7.00;6.33;;;10.30;53.70;;;;;;5048537;28;20425;-82
2021/10/13 11:18:49;;;;;;;8.47;6.10;;;10.40;51.80;;;;;;5031321;28;20459;-80
2021/10/13 11:21:15;;;;;;;4.20;3.80;;;10.50;51.80;;;;;;5032019;28;20701;-81
2021/10/13 11:23:41;;;;;;;10.90;6.10;;;10.50;48.70;;;;;;5031777;28;20680;-81
2021/10/13 11:26:07;;;;;;;6.50;5.90;;;10.60;50.00;;;;;;5030597;28;20418;-79
2021/10/13 11:28:37;;;;;;;6.90;6.30;;;10.60;50.90;;;;;;5031551;28;20183;-80
2021/10/13 11:31:05;;;;;;;10.73;6.50;;;10.70;51.40;;;;;;5031650;28;20193;-81
2021/10/13 11:33:32;;;;;;;8.27;7.47;;;10.60;51.90;;;;;;5031521;28;20775;-82
2021/10/13 11:36:02;;;;;;;9.37;6.80;;;10.60;52.90;;;;;;5031589;28;20438;-80
2021/10/13 11:38:32;;;;;;;11.55;6.50;;;10.60;54.50;;;;;;5030571;28;20433;-81
2021/10/13 11:41:11;;;;;;;6.10;5.60;;;10.60;53.40;;;;;;5031768;28;20188;-81
2021/10/13 11:43:37;;;;;;;6.80;6.13;;;10.50;53.80;;;;;;5031453;28;20506;-81
2021/10/13 11:46:04;;;;;;;7.83;6.20;;;10.60;53.70;;;;;;5031254;28;20505;-80
2021/10/13 11:48:32;;;;;;;15.27;5.67;;;10.50;52.60;;;;;;5031152;28;20428;-81
2021/10/13 11:51:01;;;;;;;6.33;5.10;;;10.50;53.20;;;;;;5031253;28;20450;-80
2021/10/13 11:53:28;;;;;;;5.03;4.63;;;10.50;53.40;;;;;;5031516;28;20419;-80
2021/10/13 11:55:54;;;;;;;5.60;3.90;;;10.60;53.20;;;;;;5031352;28;20928;-81
2021/10/13 11:58:30;;;;;;;6.87;4.10;;;10.50;51.80;;;;;;5031145;28;20469;-81
2021/10/13 12:00:57;;;;;;;4.13;3.63;;;10.60;51.90;;;;;;5031219;28;20582;-81
2021/10/13 12:03:30;;;;;;;3.57;3.20;;;10.60;51.90;;;;;;5030967;28;20419;-81
2021/10/13 12:05:59;;;;;;;5.20;3.10;;;10.70;52.00;;;;;;5031094;28;20481;-81
2021/10/13 12:08:29;;;;;;;3.30;2.40;;;10.70;51.50;;;;;;5031269;28;20431;-82
2021/10/13 12:13:51;;;;;;;2.90;1.47;;;10.80;48.00;;;;;;5051717;28;20478;-82
2021/10/13 12:16:26;;;;;;;2.25;2.10;;;10.80;46.40;;;;;;5034358;28;20420;-83
2021/10/13 12:18:52;;;;;;;1.40;1.27;;;10.90;46.40;;;;;;5034435;28;20226;-83
2021/10/13 12:21:23;;;;;;;3.93;1.70;;;10.90;45.30;;;;;;5034573;28;20419;-84
2021/10/13 12:23:52;;;;;;;1.57;1.47;;;11.00;47.10;;;;;;5034388;28;20448;-83
2021/10/13 12:26:24;;;;;;;2.47;1.87;;;11.10;45.70;;;;;;5034085;28;20446;-84
2021/10/13 12:28:56;;;;;;;2.37;2.17;;;11.20;48.00;;;;;;5052271;28;20410;-81
2021/10/13 12:31:27;;;;;;;1.40;1.40;;;11.30;48.60;;;;;;5034245;28;20425;-83
2021/10/13 12:34:00;;;;;;;1.87;1.77;;;11.30;46.10;;;;;;5034103;28;20421;-83
2021/10/13 12:36:35;;;;;;;1.77;1.67;;;11.40;46.10;;;;;;5034488;28;20415;-84
2021/10/13 12:39:15;;;;;;;2.77;1.70;;;11.40;46.10;;;;;;5038321;28;20465;-82
2021/10/13 12:41:43;;;;;;;1.83;1.73;;;11.50;45.80;;;;;;5038308;28;20765;-82
2021/10/13 12:44:13;;;;;;;3.53;2.00;;;11.30;46.20;;;;;;5038040;28;20784;-82
2021/10/13 12:46:40;;;;;;;1.87;1.77;;;11.10;48.50;;;;;;5037846;28;20422;-83
2021/10/13 12:49:17;;;;;;;3.40;1.87;;;11.10;48.80;;;;;;5038112;28;20821;-83
2021/10/13 12:52:01;;;;;;;2.20;1.50;;;10.90;48.00;;;;;;5037958;28;20425;-82
2021/10/13 12:54:35;;;;;;;7.30;2.53;;;10.80;47.60;;;;;;5037798;28;20418;-83